Terminal Aerodrome Forecast
Issued by NWS

Home | Current Version | Previous Version | Text Only | Print | Product List | Glossary On
Versions: 1 2 3 4 5 6 7 8 9 10 11 12 13 14 15 16 17
000
FTAK31 PAFA 221519 AAA
TAFAGA
TAF AMD
PAGA 221519Z 2215/2312 33005KT 6SM -SN BR FEW015 BKN035 OVC050
     FM221800 36005KT 2SM -SN BR BKN025 BKN035 OVC050
     FM230000 03005KT 6SM -SN BR SCT025 BKN035 OVC050=

USA.gov is the U.S. government's official web portal to all federal, state and local government web resources and services.